Dauntless Aviation
Airports Europe Switzerland
LSTA

Raron Airport

Raron, SWITZERLAND

Airport Info
Suggest Updated Information for this Airport

Location

Latitude / Longitude: 46°18'12"N / 7°49'23"E
  46°18.216'N / 7°49.398'E
  46.3036 / 7.8233
Satellite photo at:
Airport distance calculator
From:
Weather Reports

METAR

LSGS
21.7nm SW
LSGS 210050Z AUTO 00000KT CAVOK 12/07 Q1016
LSMS
21.7nm SW
LSMS 210050Z AUTO 00000KT CAVOK 12/07 Q1016
LSMM
29.4nm N
LSMM 210050Z AUTO 25005KT 9999NDV FEW100 10/08 Q1016 RMK
LSZB
39.2nm NW
LSZB 210050Z AUTO VRB01KT 9000 FEW140 09/08 Q1015

TAF

LIMW
39.2nm S
TAF LIMW 201700Z 2018/2103 VRB05KT 9999 BKN080
Safelog

 

Dauntless Aviation

© 2007-2018 Dauntless Aviation, all rights reserved
Information provided via PilotNav comes from a variety of official and unofficial data sources. As errors are possible, do not use PilotNav for primary flight planning purposes. Verify any information that you receive via PilotNav with current and canonical charts and other official documents. The material in this database is subject to database copyrights held by Dauntless Aviation and may not be copied without the express permission of Dauntless Aviation - licenses for use of part of all of this data are available for purchase; enquire via the Dauntless Aviation helpdesk. A number of mechanisms and markers exist in the database to protect against and identify infringement / copyright. Automated queries against this website are stictly prohibited, and all activity is logged and analyzed.